createdAt,value
2022-11-04T00:01:40.757Z,14.85
2022-11-04T00:04:09.942Z,14.77
2022-11-04T00:06:38.299Z,14.82
2022-11-04T00:09:08.892Z,14.77
2022-11-04T00:11:55.057Z,13.65
2022-11-04T00:14:22.281Z,14.05
2022-11-04T00:17:08.572Z,13.98
2022-11-04T00:19:58.895Z,13.82
2022-11-04T00:22:44.901Z,14.10
2022-11-04T00:25:31.324Z,12.77
2022-11-04T00:28:37.935Z,13.35
2022-11-04T00:31:27.151Z,14.25
2022-11-04T00:33:56.399Z,13.02
2022-11-04T00:36:24.986Z,13.25
2022-11-04T00:38:52.333Z,13.25
2022-11-04T00:41:29.180Z,12.27
2022-11-04T00:43:58.801Z,12.55
2022-11-04T00:46:27.835Z,12.75
2022-11-04T00:48:55.141Z,11.98
2022-11-04T00:51:22.541Z,11.77
2022-11-04T00:53:50.415Z,11.98
2022-11-04T00:56:17.633Z,10.80
2022-11-04T00:58:44.937Z,11.25
2022-11-04T01:01:18.190Z,9.82
2022-11-04T01:03:50.632Z,9.38
2022-11-04T01:06:19.450Z,8.38
2022-11-04T01:08:47.512Z,8.52
2022-11-04T01:11:15.663Z,7.60
2022-11-04T01:13:42.916Z,7.55
2022-11-04T01:16:12.077Z,7.75
2022-11-04T01:18:39.966Z,7.55
2022-11-04T01:21:09.312Z,7.53
2022-11-04T01:23:36.652Z,7.05
2022-11-04T01:26:08.933Z,7.07
2022-11-04T01:28:36.521Z,6.88
2022-11-04T01:31:08.411Z,7.72
2022-11-04T01:36:05.316Z,6.18
2022-11-04T01:38:32.710Z,6.55
2022-11-04T01:41:00.079Z,6.78
2022-11-04T01:43:51.272Z,6.65
2022-11-04T01:46:39.292Z,7.22
2022-11-04T01:49:31.104Z,5.78
2022-11-04T01:52:03.477Z,4.78
2022-11-04T01:54:31.195Z,5.00
2022-11-04T01:57:00.665Z,4.60
2022-11-04T01:59:35.330Z,5.22
2022-11-04T02:02:03.231Z,4.50
2022-11-04T02:04:30.914Z,4.20
2022-11-04T02:07:00.977Z,3.83
2022-11-04T02:09:30.470Z,3.90
2022-11-04T02:12:16.489Z,3.70
2022-11-04T02:14:45.949Z,3.17
2022-11-04T02:17:43.202Z,3.45
2022-11-04T02:20:44.818Z,3.30
2022-11-04T02:23:30.400Z,2.40
2022-11-04T02:26:18.941Z,3.03
2022-11-04T02:29:17.347Z,2.38
2022-11-04T02:32:01.453Z,2.60
2022-11-04T02:34:44.171Z,2.55
2022-11-04T02:37:33.392Z,2.55
2022-11-04T02:40:25.040Z,2.40
2022-11-04T02:42:55.339Z,2.20
2022-11-04T02:45:37.849Z,2.30
2022-11-04T02:48:20.023Z,2.22
2022-11-04T02:53:26.324Z,2.63
2022-11-04T02:55:57.616Z,2.45
2022-11-04T02:58:38.107Z,2.05
2022-11-04T03:01:08.340Z,2.30
2022-11-04T03:03:45.856Z,2.40
2022-11-04T03:06:17.402Z,1.98
2022-11-04T03:08:48.690Z,2.55
2022-11-04T03:11:19.152Z,2.28
2022-11-04T03:14:10.450Z,1.88
2022-11-04T03:16:49.603Z,2.45
2022-11-04T03:19:20.413Z,2.10
2022-11-04T03:22:05.153Z,2.15
2022-11-04T03:24:32.814Z,2.00
2022-11-04T03:27:21.439Z,2.45
2022-11-04T03:29:58.287Z,2.15
2022-11-04T03:32:33.068Z,1.98
2022-11-04T03:35:00.354Z,1.92
2022-11-04T03:37:27.682Z,1.95
2022-11-04T03:39:55.758Z,1.85
2022-11-04T03:42:23.867Z,2.30
2022-11-04T03:44:53.993Z,2.30
2022-11-04T03:47:24.601Z,2.25
2022-11-04T03:49:57.519Z,2.10
2022-11-04T03:52:24.996Z,2.03
2022-11-04T03:54:52.248Z,1.95
2022-11-04T03:57:28.296Z,2.30
2022-11-04T04:00:17.090Z,2.30
2022-11-04T04:03:11.439Z,2.17
2022-11-04T04:06:02.308Z,2.20
2022-11-04T04:08:42.175Z,1.92
2022-11-04T04:11:23.332Z,2.50
2022-11-04T04:13:59.767Z,1.92
2022-11-04T04:16:32.767Z,1.90
2022-11-04T04:19:06.965Z,1.83
2022-11-04T04:21:42.902Z,1.95
2022-11-04T04:24:30.814Z,1.90
2022-11-04T04:27:18.179Z,1.85
2022-11-04T04:29:46.565Z,1.70
2022-11-04T04:32:16.522Z,1.70
2022-11-04T04:34:44.347Z,2.00
2022-11-04T04:37:25.739Z,1.75
2022-11-04T04:40:22.181Z,1.90
2022-11-04T04:43:13.940Z,1.90
2022-11-04T04:45:44.311Z,2.80
2022-11-04T04:48:14.216Z,1.90
2022-11-04T04:50:46.819Z,1.92
2022-11-04T04:53:14.175Z,2.10
2022-11-04T04:55:41.966Z,2.40
2022-11-04T04:58:09.940Z,2.20
2022-11-04T05:00:37.235Z,2.00
2022-11-04T05:03:04.628Z,1.98
2022-11-04T05:05:32.231Z,1.95
2022-11-04T05:08:07.190Z,2.17
2022-11-04T05:10:34.994Z,2.20
2022-11-04T05:13:20.631Z,2.22
2022-11-04T05:15:48.028Z,2.30
2022-11-04T05:18:15.333Z,2.47
2022-11-04T05:20:42.661Z,2.10
2022-11-04T05:23:12.317Z,2.45
2022-11-04T05:25:43.274Z,2.40
2022-11-04T05:28:10.899Z,2.17
2022-11-04T05:30:38.376Z,2.30
2022-11-04T05:33:05.689Z,2.80
2022-11-04T05:35:34.167Z,2.47
2022-11-04T05:38:01.532Z,2.70
2022-11-04T05:40:28.757Z,2.90
2022-11-04T05:42:58.777Z,2.50
2022-11-04T05:45:26.933Z,3.13
2022-11-04T05:48:05.401Z,3.08
2022-11-04T05:50:34.380Z,2.67
2022-11-04T05:53:01.666Z,2.70
2022-11-04T05:55:29.028Z,2.88
2022-11-04T05:57:58.161Z,2.90
2022-11-04T06:00:29.113Z,3.10
2022-11-04T06:02:59.190Z,3.13
2022-11-04T06:05:27.767Z,3.33
2022-11-04T06:07:56.213Z,2.80
2022-11-04T06:10:23.961Z,2.85
2022-11-04T06:12:51.344Z,3.30
2022-11-04T06:15:18.623Z,3.13
2022-11-04T06:17:45.886Z,3.35
2022-11-04T06:20:13.323Z,3.00
2022-11-04T06:22:40.580Z,3.45
2022-11-04T06:25:08.306Z,3.08
2022-11-04T06:27:35.532Z,3.33
2022-11-04T06:30:02.826Z,4.32
2022-11-04T06:32:30.116Z,2.90
2022-11-04T06:34:57.410Z,3.35
2022-11-04T06:37:24.679Z,3.50
2022-11-04T06:39:51.993Z,3.33
2022-11-04T06:42:19.344Z,4.00
2022-11-04T06:44:46.751Z,3.90
2022-11-04T06:47:14.177Z,3.78
2022-11-04T06:49:41.527Z,3.65
2022-11-04T06:52:08.779Z,3.63
2022-11-04T06:54:36.243Z,3.78
2022-11-04T06:57:03.856Z,3.17
2022-11-04T06:59:31.296Z,3.78
2022-11-04T07:01:58.692Z,3.33
2022-11-04T07:04:26.290Z,3.10
2022-11-04T07:06:53.622Z,3.42
2022-11-04T07:09:20.858Z,3.35
2022-11-04T07:11:48.467Z,3.25
2022-11-04T07:14:15.848Z,3.42
2022-11-04T07:16:43.241Z,3.90
2022-11-04T07:19:10.566Z,2.70
2022-11-04T07:21:37.941Z,2.97
2022-11-04T07:24:05.612Z,2.40
2022-11-04T07:26:32.925Z,2.40
2022-11-04T07:29:01.144Z,2.30
2022-11-04T07:31:28.817Z,2.10
2022-11-04T07:33:56.077Z,2.53
2022-11-04T07:36:23.451Z,2.47
2022-11-04T07:38:50.810Z,2.38
2022-11-04T07:41:18.584Z,2.50
2022-11-04T07:43:52.931Z,2.40
2022-11-04T07:46:21.369Z,2.50
2022-11-04T07:48:48.941Z,3.05
2022-11-04T07:51:20.481Z,3.05
2022-11-04T07:53:47.860Z,3.30
2022-11-04T07:56:15.337Z,3.35
2022-11-04T07:58:42.882Z,3.40
2022-11-04T08:01:13.420Z,3.28
2022-11-04T08:03:40.942Z,3.15
2022-11-04T08:06:11.213Z,3.10
2022-11-04T08:08:39.113Z,3.53
2022-11-04T08:11:17.073Z,3.25
2022-11-04T08:13:46.189Z,3.50
2022-11-04T08:16:15.755Z,3.13
2022-11-04T08:18:43.577Z,3.10
2022-11-04T08:21:11.994Z,3.50
2022-11-04T08:23:39.487Z,2.92
2022-11-04T08:26:11.948Z,3.03
2022-11-04T08:28:39.732Z,3.05
2022-11-04T08:31:14.284Z,3.30
2022-11-04T08:33:42.351Z,2.67
2022-11-04T08:36:14.274Z,3.03
2022-11-04T08:41:10.853Z,2.95
2022-11-04T08:43:39.021Z,2.88
2022-11-04T08:46:08.974Z,2.88
2022-11-04T08:48:38.143Z,2.63
2022-11-04T08:51:08.194Z,2.63
2022-11-04T08:53:35.821Z,3.03
2022-11-04T08:56:27.584Z,2.80
2022-11-04T08:58:55.467Z,2.72
2022-11-04T09:01:24.262Z,2.72
2022-11-04T09:03:52.005Z,2.92
2022-11-04T09:06:24.917Z,3.00
2022-11-04T09:08:55.434Z,2.85
2022-11-04T09:11:23.330Z,2.58
2022-11-04T09:13:50.883Z,2.70
2022-11-04T09:16:18.336Z,2.70
2022-11-04T09:18:45.605Z,4.53
2022-11-04T09:21:13.211Z,3.17
2022-11-04T09:23:40.570Z,2.75
2022-11-04T09:26:14.138Z,3.30
2022-11-04T09:28:42.126Z,2.83
2022-11-04T09:31:19.685Z,2.80
2022-11-04T09:33:47.000Z,2.67
2022-11-04T09:36:14.728Z,2.65
2022-11-04T09:38:43.051Z,2.70
2022-11-04T09:41:34.865Z,2.30
2022-11-04T09:44:28.484Z,3.28
2022-11-04T09:47:01.462Z,2.70
2022-11-04T09:49:36.084Z,2.63
2022-11-04T09:52:13.485Z,2.60
2022-11-04T09:54:53.390Z,2.55
2022-11-04T09:57:21.055Z,3.50
2022-11-04T09:59:49.115Z,2.58
2022-11-04T10:02:25.375Z,2.63
2022-11-04T10:05:20.378Z,2.72
2022-11-04T10:07:59.769Z,2.35
2022-11-04T10:10:33.177Z,2.70
2022-11-04T10:13:24.034Z,2.95
2022-11-04T10:16:09.370Z,2.90
2022-11-04T10:18:51.830Z,2.70
2022-11-04T10:21:40.172Z,2.60
2022-11-04T10:24:24.193Z,2.30
2022-11-04T10:27:01.044Z,2.63
2022-11-04T10:29:31.192Z,2.83
2022-11-04T10:32:03.165Z,3.22
2022-11-04T10:37:00.907Z,2.53
2022-11-04T10:39:30.977Z,2.40
2022-11-04T10:41:58.495Z,2.17
2022-11-04T10:44:32.439Z,2.63
2022-11-04T10:47:16.044Z,2.45
2022-11-04T10:50:27.217Z,2.65
2022-11-04T10:52:45.108Z,2.43
2022-11-04T10:55:33.080Z,2.45
2022-11-04T10:58:01.474Z,2.92
2022-11-04T11:00:40.291Z,2.70
2022-11-04T11:03:25.678Z,2.70
2022-11-04T11:05:54.052Z,2.80
2022-11-04T11:08:33.706Z,2.38
2022-11-04T11:11:01.028Z,2.60
2022-11-04T11:13:35.534Z,2.55
2022-11-04T11:16:18.684Z,2.70
2022-11-04T11:19:06.052Z,2.83
2022-11-04T11:21:48.858Z,2.65
2022-11-04T11:24:23.489Z,2.58
2022-11-04T11:26:56.653Z,2.45
2022-11-04T11:29:40.309Z,2.63
2022-11-04T11:32:43.533Z,2.30
2022-11-04T11:35:18.527Z,2.78
2022-11-04T11:37:47.594Z,2.70
2022-11-04T11:40:34.778Z,2.55
2022-11-04T11:43:04.462Z,2.72
2022-11-04T11:45:32.771Z,2.72
2022-11-04T11:48:00.145Z,2.30
2022-11-04T11:50:34.664Z,2.88
2022-11-04T11:53:15.094Z,3.20
2022-11-04T11:56:20.852Z,2.60
2022-11-04T12:02:16.229Z,2.70
2022-11-04T12:10:50.890Z,2.60
2022-11-04T12:13:32.673Z,3.08
2022-11-04T12:16:32.227Z,2.50
2022-11-04T12:19:18.874Z,2.55
2022-11-04T12:22:14.077Z,2.30
2022-11-04T12:25:16.038Z,2.65
2022-11-04T12:27:58.877Z,2.30
2022-11-04T12:30:33.833Z,2.92
2022-11-04T12:33:44.266Z,2.78
2022-11-04T12:36:31.973Z,2.55
2022-11-04T12:39:17.908Z,3.20
2022-11-04T12:45:10.787Z,2.70
2022-11-04T12:47:46.335Z,2.70
2022-11-04T12:50:40.254Z,2.47
2022-11-04T12:53:20.377Z,2.58
2022-11-04T12:56:10.153Z,3.20
2022-11-04T12:59:10.436Z,3.00
2022-11-04T13:01:44.285Z,2.60
2022-11-04T13:04:20.422Z,2.30
2022-11-04T13:07:05.219Z,3.20
2022-11-04T13:09:56.216Z,2.60
2022-11-04T13:12:32.855Z,2.92
2022-11-04T13:15:12.948Z,2.90
2022-11-04T13:17:41.771Z,2.97
2022-11-04T13:20:15.144Z,2.50
2022-11-04T13:22:52.573Z,2.85
2022-11-04T13:25:23.859Z,3.03
2022-11-04T13:27:52.048Z,3.05
2022-11-04T13:30:40.725Z,3.10
2022-11-04T13:33:25.900Z,2.78
2022-11-04T13:36:08.647Z,3.05
2022-11-04T13:38:41.340Z,3.15
2022-11-04T13:41:26.719Z,3.20
2022-11-04T13:44:03.038Z,2.70
2022-11-04T13:46:33.708Z,3.35
2022-11-04T13:49:17.782Z,3.55
2022-11-04T13:51:47.427Z,3.13
2022-11-04T13:54:25.821Z,3.00
2022-11-04T13:57:11.248Z,2.90
2022-11-04T13:59:39.712Z,3.00
2022-11-04T14:02:19.276Z,2.80
2022-11-04T14:04:47.765Z,3.08
2022-11-04T14:07:18.217Z,2.70
2022-11-04T14:09:53.647Z,3.00
2022-11-04T14:12:27.295Z,3.20
2022-11-04T14:15:02.543Z,2.53
2022-11-04T14:17:36.457Z,3.20
2022-11-04T14:20:25.588Z,2.95
2022-11-04T14:22:55.702Z,3.60
2022-11-04T14:25:41.754Z,4.55
2022-11-04T14:28:15.243Z,3.17
2022-11-04T14:30:46.776Z,3.45
2022-11-04T14:33:53.792Z,3.28
2022-11-04T14:36:21.256Z,2.90
2022-11-04T14:38:57.804Z,3.10
2022-11-04T14:41:50.889Z,4.10
2022-11-04T14:44:33.453Z,4.07
2022-11-04T14:47:15.401Z,4.65
2022-11-04T14:50:11.349Z,4.55
2022-11-04T14:52:48.173Z,2.90
2022-11-04T14:55:19.703Z,3.42
2022-11-04T14:57:49.477Z,2.90
2022-11-04T15:00:30.698Z,2.85
2022-11-04T15:03:27.890Z,3.20
2022-11-04T15:06:03.472Z,3.22
2022-11-04T15:08:32.619Z,3.35
2022-11-04T15:11:04.213Z,3.20
2022-11-04T15:13:43.340Z,3.00
2022-11-04T15:16:19.122Z,2.83
2022-11-04T15:18:47.544Z,2.70
2022-11-04T15:21:15.536Z,2.83
2022-11-04T15:23:49.126Z,3.90
2022-11-04T15:26:29.520Z,4.20
2022-11-04T15:29:00.714Z,3.60
2022-11-04T15:31:31.559Z,3.05
2022-11-04T15:34:02.497Z,3.60
2022-11-04T15:36:39.990Z,3.78
2022-11-04T15:39:24.416Z,4.30
2022-11-04T15:42:15.540Z,4.80
2022-11-04T15:44:55.110Z,5.15
2022-11-04T15:47:28.411Z,4.53
2022-11-04T15:50:15.721Z,4.65
2022-11-04T15:52:52.164Z,4.90
2022-11-04T15:55:25.524Z,5.00
2022-11-04T15:57:57.239Z,4.97
2022-11-04T16:00:26.067Z,5.82
2022-11-04T16:02:59.926Z,5.00
2022-11-04T16:05:30.413Z,5.07
2022-11-04T16:08:27.928Z,5.00
2022-11-04T16:11:16.801Z,4.22
2022-11-04T16:13:45.660Z,3.92
2022-11-04T16:16:25.208Z,4.22
2022-11-04T16:18:57.818Z,4.95
2022-11-04T16:21:32.356Z,3.85
2022-11-04T16:24:20.703Z,3.70
2022-11-04T16:26:48.751Z,4.07
2022-11-04T16:29:22.138Z,4.13
2022-11-04T16:32:27.104Z,3.67
2022-11-04T16:34:59.256Z,4.05
2022-11-04T16:37:28.194Z,4.57
2022-11-04T16:39:55.554Z,4.22
2022-11-04T16:42:23.413Z,4.38
2022-11-04T16:45:00.095Z,4.85
2022-11-04T16:47:30.103Z,4.65
2022-11-04T16:50:01.371Z,5.32
2022-11-04T16:52:29.266Z,5.63
2022-11-04T16:54:56.804Z,7.13
2022-11-04T16:57:25.705Z,6.22
2022-11-04T16:59:53.262Z,6.30
2022-11-04T17:02:37.680Z,6.05
2022-11-04T17:05:06.083Z,5.47
2022-11-04T17:07:51.693Z,5.03
2022-11-04T17:10:27.066Z,5.50
2022-11-04T17:12:54.767Z,5.40
2022-11-04T17:15:22.781Z,4.95
2022-11-04T17:17:50.108Z,5.50
2022-11-04T17:20:18.519Z,5.95
2022-11-04T17:22:47.448Z,5.63
2022-11-04T17:25:16.856Z,6.03
2022-11-04T17:27:44.711Z,6.00
2022-11-04T17:30:14.174Z,6.20
2022-11-04T17:32:42.582Z,7.13
2022-11-04T17:35:10.911Z,7.10
2022-11-04T17:37:38.532Z,7.65
2022-11-04T17:40:06.919Z,8.07
2022-11-04T17:42:52.847Z,10.48
2022-11-04T17:45:20.128Z,10.52
2022-11-04T17:47:47.655Z,8.05
2022-11-04T17:50:14.983Z,8.73
2022-11-04T17:52:49.094Z,9.10
2022-11-04T17:55:19.674Z,8.20
2022-11-04T17:57:49.216Z,9.25
2022-11-04T18:00:17.103Z,8.23
2022-11-04T18:02:44.617Z,8.07
2022-11-04T18:05:12.313Z,9.38
2022-11-04T18:07:39.916Z,9.35
2022-11-04T18:10:07.997Z,10.00
2022-11-04T18:12:40.138Z,10.85
2022-11-04T18:15:13.553Z,9.93
2022-11-04T18:17:42.358Z,9.80
2022-11-04T18:20:13.921Z,9.05
2022-11-04T18:22:42.632Z,7.45
2022-11-04T18:25:10.876Z,7.88
2022-11-04T18:27:38.657Z,7.95
2022-11-04T18:30:07.210Z,8.68
2022-11-04T18:32:34.744Z,8.00
2022-11-04T18:35:03.169Z,9.07
2022-11-04T18:37:30.668Z,10.10
2022-11-04T18:39:57.978Z,11.40
2022-11-04T18:42:26.263Z,11.82
2022-11-04T18:44:53.605Z,10.75
2022-11-04T18:47:21.720Z,11.70
2022-11-04T18:49:49.666Z,11.63
2022-11-04T18:52:16.929Z,11.48
2022-11-04T18:54:44.755Z,10.90
2022-11-04T18:57:12.278Z,11.23
2022-11-04T18:59:39.782Z,12.75
2022-11-04T19:02:08.048Z,11.25
2022-11-04T19:04:35.511Z,12.20
2022-11-04T19:07:04.764Z,12.27
2022-11-04T19:09:46.060Z,9.90
2022-11-04T19:12:36.085Z,12.50
2022-11-04T19:15:04.707Z,11.20
2022-11-04T19:17:35.467Z,10.40
2022-11-04T19:20:11.101Z,9.32
2022-11-04T19:22:40.139Z,9.63
2022-11-04T19:25:11.763Z,8.90
2022-11-04T19:27:40.780Z,8.85
2022-11-04T19:30:08.793Z,9.55
2022-11-04T19:32:36.096Z,9.40
2022-11-04T19:35:05.312Z,9.75
2022-11-04T19:37:33.733Z,9.40
2022-11-04T19:40:01.250Z,10.63
2022-11-04T19:42:47.425Z,8.50
2022-11-04T19:45:15.092Z,9.32
2022-11-04T19:47:45.709Z,9.18
2022-11-04T19:50:13.555Z,9.55
2022-11-04T19:52:41.077Z,8.13
2022-11-04T19:55:10.204Z,7.95
2022-11-04T19:57:38.702Z,7.82
2022-11-04T20:00:06.949Z,8.52
2022-11-04T20:02:40.462Z,8.27
2022-11-04T20:05:11.494Z,8.10
2022-11-04T20:07:39.662Z,9.10
2022-11-04T20:10:07.791Z,7.78
2022-11-04T20:12:56.147Z,7.65
2022-11-04T20:15:25.614Z,7.65
2022-11-04T20:17:53.581Z,7.45
2022-11-04T20:20:21.017Z,7.43
2022-11-04T20:22:48.407Z,7.78
2022-11-04T20:25:15.910Z,6.90
2022-11-04T20:27:44.756Z,7.85
2022-11-04T20:30:12.307Z,7.57
2022-11-04T20:32:39.764Z,7.70
2022-11-04T20:35:07.543Z,6.88
2022-11-04T20:37:34.815Z,7.57
2022-11-04T20:40:02.311Z,8.40
2022-11-04T20:42:29.751Z,5.63
2022-11-04T20:44:57.980Z,6.30
2022-11-04T20:47:25.488Z,6.05
2022-11-04T20:49:53.156Z,7.07
2022-11-04T20:52:22.336Z,5.95
2022-11-04T20:54:49.645Z,5.95
2022-11-04T20:57:17.113Z,4.90
2022-11-04T20:59:44.528Z,5.85
2022-11-04T21:02:12.499Z,4.43
2022-11-04T21:04:39.986Z,5.65
2022-11-04T21:07:07.570Z,4.45
2022-11-04T21:09:34.874Z,4.22
2022-11-04T21:12:02.204Z,4.20
2022-11-04T21:14:31.917Z,3.33
2022-11-04T21:16:59.206Z,3.25
2022-11-04T21:19:26.619Z,2.55
2022-11-04T21:21:54.360Z,3.03
2022-11-04T21:24:21.563Z,2.80
2022-11-04T21:26:49.606Z,3.03
2022-11-04T21:29:19.616Z,3.47
2022-11-04T21:31:48.707Z,4.97
2022-11-04T21:34:16.277Z,4.65
2022-11-04T21:36:43.771Z,4.28
2022-11-04T21:39:11.349Z,4.15
2022-11-04T21:41:39.447Z,7.28
2022-11-04T21:44:11.320Z,4.78
2022-11-04T21:46:39.028Z,4.18
2022-11-04T21:49:06.666Z,4.45
2022-11-04T21:51:34.680Z,4.20
2022-11-04T21:54:05.468Z,4.40
2022-11-04T21:56:33.252Z,4.18
2022-11-04T21:59:01.317Z,5.00
2022-11-04T22:01:30.682Z,4.65
2022-11-04T22:04:00.554Z,5.03
2022-11-04T22:06:34.051Z,5.22
2022-11-04T22:09:03.621Z,4.60
2022-11-04T22:11:32.287Z,4.60
2022-11-04T22:14:02.082Z,5.07
2022-11-04T22:16:31.662Z,5.22
2022-11-04T22:19:01.128Z,7.13
2022-11-04T22:21:31.299Z,5.10
2022-11-04T22:23:59.712Z,4.82
2022-11-04T22:26:29.578Z,5.25
2022-11-04T22:28:57.233Z,5.38
2022-11-04T22:31:33.919Z,5.30
2022-11-04T22:34:01.773Z,6.00
2022-11-04T22:36:30.196Z,7.25
2022-11-04T22:38:57.926Z,6.43
2022-11-04T22:41:31.192Z,5.97
2022-11-04T22:43:58.934Z,5.85
2022-11-04T22:46:28.957Z,5.40
2022-11-04T22:48:56.526Z,5.70
2022-11-04T22:51:23.878Z,6.10
2022-11-04T22:54:00.109Z,5.60
2022-11-04T22:56:30.428Z,5.75
2022-11-04T22:58:57.699Z,6.32
2022-11-04T23:01:26.265Z,5.65
2022-11-04T23:03:53.657Z,5.43
2022-11-04T23:06:21.004Z,6.35
2022-11-04T23:08:48.420Z,5.38
2022-11-04T23:11:45.786Z,5.35
2022-11-04T23:14:33.900Z,5.72
2022-11-04T23:17:20.268Z,5.20
2022-11-04T23:19:49.982Z,6.00
2022-11-04T23:22:35.880Z,6.53
2022-11-04T23:25:06.424Z,6.10
2022-11-04T23:27:59.281Z,6.35
2022-11-04T23:30:29.140Z,6.15
2022-11-04T23:33:02.197Z,6.18
2022-11-04T23:35:52.067Z,6.18
2022-11-04T23:38:20.098Z,6.90
2022-11-04T23:41:07.653Z,7.25
2022-11-04T23:43:35.911Z,6.22
2022-11-04T23:46:21.783Z,6.50
2022-11-04T23:49:07.513Z,6.53
2022-11-04T23:51:53.499Z,6.30
2022-11-04T23:54:39.226Z,6.07
2022-11-04T23:57:31.926Z,8.25
